Time;durP1;ratioP1;P1;durP2;ratioP2;P2;SDS_P1;SDS_P2;PMS_P1;PMS_P2;Temp;Humidity;BMP_temperature;BMP_pressure;BME280_temperature;BME280_humidity;BME280_pressure;Samples;Min_cycle;Max_cycle;Signal;HPM_P1;HPM_P2
2023/04/03 00:00:45;;;;;;;264.23;239.17;;;;;;;22.27;nan;100189.41;20527502;28;20494;-71
2023/04/03 00:10:54;;;;;;;215.93;195.95;;;;;;;22.28;nan;100194.53;20518770;28;20070;-71
2023/04/03 00:20:55;;;;;;;237.00;214.77;;;;;;;22.26;nan;100198.28;20534594;28;20051;-72
2023/04/03 00:30:55;;;;;;;259.73;235.13;;;;;;;22.24;nan;100201.03;20528384;28;20077;-71
2023/04/03 00:40:56;;;;;;;224.52;203.60;;;;;;;22.25;nan;100201.88;20533564;28;20150;-71
2023/04/03 00:50:57;;;;;;;270.38;244.60;;;;;;;22.21;nan;100202.13;20532090;28;20526;-70
2023/04/03 01:00:59;;;;;;;299.63;270.83;;;;;;;22.22;nan;100219.63;20542854;28;20047;-70
2023/04/03 01:11:00;;;;;;;279.67;253.02;;;;;;;22.18;nan;100215.56;20550152;28;20050;-72
2023/04/03 01:21:57;;;;;;;272.15;246.20;;;;;;;22.17;nan;100211.25;20520042;28;20498;-72
2023/04/03 01:32:00;;;;;;;316.95;286.73;;;;;;;22.16;nan;100214.03;20206540;29;20045;-71
2023/04/03 01:42:01;;;;;;;144.77;132.63;;;;;;;22.15;nan;100215.81;20444293;28;20137;-72
2023/04/03 01:52:01;;;;;;;177.73;161.77;;;;;;;22.13;nan;100227.47;20541795;28;20039;-70
2023/04/03 02:02:04;;;;;;;177.77;161.90;;;;;;;22.15;nan;100230.81;20538373;28;20735;-71
2023/04/03 02:12:04;;;;;;;252.95;229.02;;;;;;;22.13;nan;100236.22;20522480;28;20042;-72
2023/04/03 02:22:07;;;;;;;242.93;220.15;;;;;;;22.11;nan;100232.88;20527076;28;20038;-71
2023/04/03 02:32:07;;;;;;;248.00;224.60;;;;;;;22.11;nan;100239.97;20525029;28;20043;-72
2023/04/03 02:42:08;;;;;;;240.93;218.38;;;;;;;22.09;nan;100241.88;20519610;28;20406;-71
2023/04/03 02:52:09;;;;;;;221.75;201.23;;;;;;;22.07;nan;100245.47;20530986;28;20087;-72
2023/04/03 03:02:10;;;;;;;226.15;205.13;;;;;;;22.04;nan;100237.81;20522360;28;20039;-71
2023/04/03 03:12:10;;;;;;;198.55;180.43;;;;;;;22.07;nan;100242.03;20529936;28;20043;-71
2023/04/03 03:22:11;;;;;;;221.73;201.30;;;;;;;22.02;nan;100246.81;20535927;28;20441;-69
2023/04/03 03:32:13;;;;;;;215.05;195.25;;;;;;;22.02;nan;100254.72;20535581;28;20384;-70
2023/04/03 03:42:13;;;;;;;188.43;171.38;;;;;;;22.03;nan;100259.03;20517473;28;20061;-72
2023/04/03 03:52:13;;;;;;;184.15;167.63;;;;;;;22.06;nan;100257.00;20509768;28;20082;-68
2023/04/03 04:02:14;;;;;;;202.98;184.45;;;;;;;22.10;nan;100264.66;20510484;28;20044;-69
2023/04/03 04:12:15;;;;;;;193.85;176.35;;;;;;;22.03;nan;100259.91;20485868;28;20130;-70
2023/04/03 04:22:16;;;;;;;187.98;170.80;;;;;;;22.05;nan;100257.13;20505628;28;20086;-67
2023/04/03 04:32:16;;;;;;;237.43;214.88;;;;;;;22.10;nan;100269.94;20524136;28;20504;-72
2023/04/03 04:42:20;;;;;;;208.00;188.25;;;;;;;22.15;nan;100268.56;20548189;28;20047;-73
2023/04/03 04:52:21;;;;;;;232.02;209.02;;;;;;;22.17;nan;100279.00;20565540;28;20457;-74
2023/04/03 05:02:24;;;;;;;186.50;168.83;;;;;;;22.06;nan;100286.00;20533372;28;20054;-74
2023/04/03 05:12:24;;;;;;;239.60;216.25;;;;;;;22.10;nan;100301.56;20545811;28;20129;-74
2023/04/03 05:22:26;;;;;;;209.48;189.60;;;;;;;22.01;nan;100304.00;20540392;28;20043;-72
2023/04/03 05:32:27;;;;;;;193.70;175.32;;;;;;;22.03;nan;100299.44;20516159;28;20416;-72
2023/04/03 05:42:27;;;;;;;204.20;184.70;;;;;;;22.08;nan;100293.75;20542794;28;20519;-72
2023/04/03 05:52:31;;;;;;;196.52;177.85;;;;;;;22.11;nan;100308.53;20541620;28;20055;-73
2023/04/03 06:02:33;;;;;;;198.82;180.18;;;;;;;22.12;nan;100308.41;20542421;28;20133;-72
2023/04/03 06:12:33;;;;;;;230.68;208.52;;;;;;;22.13;nan;100317.97;20549814;28;20059;-74
2023/04/03 06:22:34;;;;;;;216.98;196.60;;;;;;;22.15;nan;100326.59;20548276;28;20410;-74
2023/04/03 06:32:34;;;;;;;230.45;208.65;;;;;;;22.16;nan;100324.78;20548449;28;20134;-75
2023/04/03 06:42:35;;;;;;;240.45;217.77;;;;;;;22.18;nan;100330.75;20541988;28;20047;-75
2023/04/03 06:52:35;;;;;;;216.13;195.65;;;;;;;22.21;nan;100341.06;20530475;28;20414;-73
2023/04/03 07:02:36;;;;;;;208.88;189.38;;;;;;;22.23;nan;100358.44;20523078;28;20426;-72
2023/04/03 07:12:37;;;;;;;252.40;228.25;;;;;;;22.22;nan;100362.03;20530015;28;20461;-73
2023/04/03 07:22:38;;;;;;;253.60;229.38;;;;;;;22.25;nan;100355.66;20536799;28;20042;-74
2023/04/03 07:32:38;;;;;;;232.90;210.90;;;;;;;22.26;nan;100370.53;20531716;28;20077;-73
2023/04/03 07:42:39;;;;;;;228.27;206.82;;;;;;;22.28;nan;100379.16;20520381;28;20066;-77
2023/04/03 07:52:40;;;;;;;244.80;221.45;;;;;;;22.31;nan;100376.25;20532026;28;20067;-79
2023/04/03 08:02:40;;;;;;;224.55;203.35;;;;;;;22.33;nan;100392.81;20533340;28;20057;-76
2023/04/03 08:12:41;;;;;;;211.77;191.90;;;;;;;22.36;nan;100389.06;20561731;28;20035;-75
2023/04/03 08:22:43;;;;;;;207.23;187.95;;;;;;;22.36;nan;100395.22;20548630;28;20277;-77
2023/04/03 08:32:44;;;;;;;248.43;224.68;;;;;;;22.36;nan;100392.56;20529319;28;20442;-76
2023/04/03 08:42:50;;;;;;;194.93;176.73;;;;;;;22.41;nan;100402.78;20542827;28;20043;-78
2023/04/03 08:52:58;;;;;;;193.85;175.77;;;;;;;22.43;nan;100398.19;20543420;28;20138;-76
2023/04/03 09:03:02;;;;;;;211.63;191.70;;;;;;;22.42;nan;100393.06;20546262;28;20059;-79
2023/04/03 09:13:10;;;;;;;228.32;206.52;;;;;;;22.43;nan;100400.84;20568464;28;20270;-78
2023/04/03 09:23:24;;;;;;;219.68;198.73;;;;;;;22.45;nan;100409.47;20602174;28;20130;-77
2023/04/03 09:33:25;;;;;;;202.77;183.82;;;;;;;22.44;nan;100401.69;20590085;28;20078;-79
2023/04/03 09:43:28;;;;;;;259.52;234.32;;;;;;;22.50;nan;100395.91;20563424;28;20129;-76
2023/04/03 09:53:35;;;;;;;238.77;215.25;;;;;;;22.54;nan;100392.03;20561572;28;20055;-77
2023/04/03 10:03:36;;;;;;;223.63;202.35;;;;;;;22.57;nan;100383.88;20550078;28;20131;-77
2023/04/03 10:13:59;;;;;;;257.42;232.70;;;;;;;22.45;nan;100401.56;20578564;28;20843;-78
2023/04/03 10:24:16;;;;;;;257.10;232.23;;;;;;;22.45;nan;100403.34;20563841;28;20051;-77
2023/04/03 10:34:36;;;;;;;291.02;262.70;;;;;;;22.43;nan;100397.38;20552343;28;20117;-77
2023/04/03 10:44:55;;;;;;;307.25;277.30;;;;;;;22.38;nan;100395.94;20543596;28;20047;-76
2023/04/03 10:55:13;;;;;;;300.67;271.58;;;;;;;22.39;nan;100391.50;20517775;28;20483;-76
2023/04/03 11:05:25;;;;;;;268.48;242.55;;;;;;;22.38;nan;100390.66;20545838;28;20049;-75
2023/04/03 11:15:29;;;;;;;275.35;248.57;;;;;;;22.40;nan;100380.00;20547293;28;20594;-75
2023/04/03 11:25:32;;;;;;;261.67;236.02;;;;;;;22.42;nan;100364.03;20540089;28;20036;-76
2023/04/03 11:35:34;;;;;;;262.75;237.13;;;;;;;22.44;nan;100360.31;20561969;28;20038;-77
2023/04/03 11:46:00;;;;;;;265.73;240.07;;;;;;;22.46;nan;100358.38;20598043;28;20042;-76
2023/04/03 11:56:24;;;;;;;288.77;260.55;;;;;;;22.47;nan;100356.56;20533591;28;20565;-76
2023/04/03 12:06:34;;;;;;;277.67;250.57;;;;;;;22.44;nan;100354.19;20534493;28;20454;-78
2023/04/03 12:16:37;;;;;;;265.73;239.80;;;;;;;22.47;nan;100351.28;20526654;28;20051;-76
2023/04/03 12:26:56;;;;;;;286.55;258.73;;;;;;;22.47;nan;100340.72;20548100;28;20062;-76
2023/04/03 12:36:57;;;;;;;324.08;292.58;;;;;;;22.48;nan;100345.06;20543111;28;20056;-75
2023/04/03 12:47:00;;;;;;;292.63;264.25;;;;;;;22.47;nan;100336.31;20539746;28;20097;-75
2023/04/03 12:57:17;;;;;;;296.60;267.67;;;;;;;22.49;nan;100339.63;20564206;28;20075;-75
2023/04/03 13:07:28;;;;;;;359.67;324.70;;;;;;;22.48;nan;100322.13;20584675;28;20522;-76
2023/04/03 13:17:28;;;;;;;348.88;315.10;;;;;;;22.49;nan;100312.44;20561838;28;20042;-74
2023/04/03 13:27:32;;;;;;;313.23;282.83;;;;;;;22.50;nan;100303.56;20562022;28;20177;-75
2023/04/03 13:37:33;;;;;;;292.77;264.30;;;;;;;22.50;nan;100303.56;20561726;28;20078;-77
2023/04/03 13:47:42;;;;;;;325.02;293.15;;;;;;;22.52;nan;100293.69;20555816;28;20142;-75
2023/04/03 13:58:08;;;;;;;344.15;310.55;;;;;;;22.52;nan;100281.34;20556824;28;20150;-73
2023/04/03 14:08:09;;;;;;;345.95;312.25;;;;;;;22.55;nan;100273.16;20509831;28;20060;-73
2023/04/03 14:18:12;;;;;;;336.60;303.77;;;;;;;22.57;nan;100273.03;20564524;28;20042;-74
2023/04/03 14:28:15;;;;;;;;;;;;;;;22.65;nan;100261.81;20565960;28;20165;-73
2023/04/03 14:38:25;;;;;;;437.63;393.80;;;;;;;22.64;nan;100274.19;20543994;28;19936;-72
2023/04/03 14:48:28;;;;;;;453.27;408.40;;;;;;;22.65;nan;100267.91;20538481;28;20897;-73
2023/04/03 14:58:28;;;;;;;433.13;389.30;;;;;;;22.64;nan;100268.06;20547006;28;20130;-73
2023/04/03 15:08:29;;;;;;;416.10;374.67;;;;;;;22.64;nan;100273.34;20529536;28;21045;-74
2023/04/03 15:18:37;;;;;;;433.38;390.15;;;;;;;22.64;nan;100281.25;20528410;28;20043;-75
2023/04/03 15:28:42;;;;;;;448.00;403.35;;;;;;;22.63;nan;100279.56;20509004;28;20077;-74
2023/04/03 15:38:42;;;;;;;436.85;393.38;;;;;;;22.63;nan;100269.03;20521729;28;20066;-73
2023/04/03 15:48:44;;;;;;;422.80;380.77;;;;;;;22.62;nan;100278.75;20524194;28;20046;-72
2023/04/03 15:58:45;;;;;;;418.60;376.70;;;;;;;22.60;nan;100290.41;20500474;28;20073;-73
2023/04/03 16:08:48;;;;;;;378.25;340.70;;;;;;;22.58;nan;100294.97;20508940;28;20503;-73
2023/04/03 16:18:50;;;;;;;392.30;353.63;;;;;;;22.55;nan;100291.63;20500675;28;20038;-71
2023/04/03 16:28:51;;;;;;;424.70;382.37;;;;;;;22.53;nan;100283.03;20512801;28;20093;-71
2023/04/03 16:38:52;;;;;;;412.38;371.05;;;;;;;22.52;nan;100302.44;20513323;28;20510;-74
2023/04/03 16:48:52;;;;;;;408.08;367.48;;;;;;;22.53;nan;100314.69;20528655;28;20047;-74
2023/04/03 16:58:53;;;;;;;360.00;324.63;;;;;;;22.52;nan;100333.25;20521170;28;20116;-71
2023/04/03 17:08:55;;;;;;;397.60;358.15;;;;;;;22.50;nan;100372.97;20537821;28;20285;-71
2023/04/03 17:18:56;;;;;;;442.03;398.23;;;;;;;22.39;nan;100402.06;20533445;28;21085;-71
2023/04/03 17:28:57;;;;;;;376.52;339.40;;;;;;;22.31;nan;100431.66;20528718;28;20070;-69
2023/04/03 17:38:57;;;;;;;431.50;388.47;;;;;;;22.25;nan;100455.06;20523672;28;20049;-72
2023/04/03 17:48:59;;;;;;;441.83;397.67;;;;;;;22.18;nan;100486.38;20523087;28;20289;-73
2023/04/03 17:59:01;;;;;;;424.02;381.33;;;;;;;22.20;nan;100498.50;20535959;28;20043;-72
2023/04/03 18:09:08;;;;;;;370.83;333.93;;;;;;;22.26;nan;100539.34;20552812;28;20871;-73
2023/04/03 18:19:11;;;;;;;367.40;330.92;;;;;;;22.30;nan;100546.06;20512271;28;20070;-74
2023/04/03 18:29:13;;;;;;;363.13;326.63;;;;;;;22.34;nan;100567.78;20547783;28;20051;-75
2023/04/03 18:39:14;;;;;;;379.55;341.90;;;;;;;22.36;nan;100584.31;20530230;28;20414;-73
2023/04/03 18:49:16;;;;;;;351.17;316.48;;;;;;;22.38;nan;100585.06;20535298;28;20050;-71
2023/04/03 18:59:17;;;;;;;372.13;335.52;;;;;;;22.20;nan;100585.53;20531639;28;20843;-72
2023/04/03 19:09:20;;;;;;;341.15;307.63;;;;;;;22.22;nan;100595.97;20545928;28;20043;-72
2023/04/03 19:19:23;;;;;;;387.33;349.17;;;;;;;22.21;nan;100586.38;20534697;28;20066;-72
2023/04/03 19:29:24;;;;;;;379.30;341.77;;;;;;;22.21;nan;100595.09;20545296;28;20047;-72
2023/04/03 19:39:27;;;;;;;408.20;367.35;;;;;;;22.19;nan;100610.22;20545341;28;20113;-72
2023/04/03 19:49:30;;;;;;;411.27;370.30;;;;;;;22.18;nan;100610.31;20543795;28;20061;-71
2023/04/03 19:59:35;;;;;;;435.90;392.40;;;;;;;22.18;nan;100608.53;20506976;28;20546;-73
2023/04/03 20:09:36;;;;;;;416.30;374.13;;;;;;;22.18;nan;100602.41;20539258;28;20042;-73
2023/04/03 20:19:38;;;;;;;418.33;376.15;;;;;;;22.17;nan;100609.50;20524471;28;20047;-72
2023/04/03 20:29:39;;;;;;;537.73;486.37;;;;;;;22.16;nan;100581.44;20528096;28;20406;-71
2023/04/03 20:39:39;;;;;;;458.63;412.23;;;;;;;22.16;nan;100591.16;20521590;28;20059;-72
2023/04/03 20:49:45;;;;;;;509.20;459.77;;;;;;;22.13;nan;100594.03;20537828;28;20670;-71
2023/04/03 20:59:45;;;;;;;425.27;381.48;;;;;;;22.11;nan;100590.69;20528386;28;20051;-71
2023/04/03 21:20:30;;;;;;;430.58;387.08;;;;;;;22.10;nan;100567.91;20539762;28;20475;-72
2023/04/03 21:30:30;;;;;;;420.10;377.53;;;;;;;22.10;nan;100570.56;20521527;28;20061;-72
2023/04/03 21:40:31;;;;;;;457.58;411.80;;;;;;;22.10;nan;100576.66;20532077;28;20047;-71
2023/04/03 21:50:32;;;;;;;433.90;389.38;;;;;;;22.08;nan;100554.81;20546348;28;20039;-71
2023/04/03 22:00:37;;;;;;;470.50;423.63;;;;;;;22.08;nan;100557.47;20529640;28;20085;-71
2023/04/03 22:10:39;;;;;;;400.40;359.10;;;;;;;22.06;nan;100548.84;20527645;28;20731;-71
2023/04/03 22:20:46;;;;;;;444.80;399.77;;;;;;;22.04;nan;100538.41;20522607;28;20058;-71
2023/04/03 22:30:46;;;;;;;369.27;331.75;;;;;;;22.03;nan;100541.16;20529265;28;20039;-71
2023/04/03 22:40:48;;;;;;;365.17;327.30;;;;;;;22.00;nan;100544.88;20540819;28;20165;-70
2023/04/03 22:50:53;;;;;;;363.17;325.70;;;;;;;22.01;nan;100548.38;20530905;28;20046;-69
2023/04/03 23:01:08;;;;;;;361.08;324.48;;;;;;;21.98;nan;100545.97;20523107;28;20097;-71
2023/04/03 23:11:08;;;;;;;392.80;352.52;;;;;;;21.96;nan;100556.66;20516459;28;20082;-71
2023/04/03 23:21:08;;;;;;;448.50;403.08;;;;;;;21.95;nan;100551.47;20516009;28;20050;-70
2023/04/03 23:31:09;;;;;;;435.60;391.48;;;;;;;21.90;nan;100547.41;20523537;28;20496;-70
2023/04/03 23:41:09;;;;;;;380.33;341.95;;;;;;;21.88;nan;100525.59;20510385;28;20046;-72
2023/04/03 23:51:16;;;;;;;368.02;330.80;;;;;;;21.88;nan;100530.88;20533929;28;20114;-71
